Time;durP1;ratioP1;P1;durP2;ratioP2;P2;SDS_P1;SDS_P2;PMS_P1;PMS_P2;Temp;Humidity;BMP_temperature;BMP_pressure;BME280_temperature;BME280_humidity;BME280_pressure;Samples;Min_cycle;Max_cycle;Signal;HPM_P1;HPM_P2
2022/01/21 00:01:20;;;;;;;4.90;2.10;;;;;;;0.12;88.73;101820.59;4916967;29;20277;-75
2022/01/21 00:03:46;;;;;;;8.82;1.48;;;;;;;0.09;88.97;101820.78;4916598;29;20497;-76
2022/01/21 00:06:12;;;;;;;4.32;1.63;;;;;;;0.06;88.93;101814.84;4915679;29;20127;-75
2022/01/21 00:08:39;;;;;;;10.07;1.20;;;;;;;0.23;87.79;101814.56;4915689;29;20036;-75
2022/01/21 00:11:04;;;;;;;7.25;2.05;;;;;;;0.33;87.79;101811.19;4916549;29;20032;-75
2022/01/21 00:13:37;;;;;;;3.15;1.20;;;;;;;0.27;87.62;101808.09;4917101;29;20428;-76
2022/01/21 00:16:04;;;;;;;9.18;1.60;;;;;;;0.13;88.09;101832.91;4915575;29;20386;-75
2022/01/21 00:18:29;;;;;;;4.25;0.98;;;;;;;0.12;88.79;101825.91;4916606;29;20036;-75
2022/01/21 00:31:51;;;;;;;4.55;1.27;;;;;;;0.07;89.45;101837.75;4916543;29;20511;-76
2022/01/21 00:34:16;;;;;;;6.43;1.65;;;;;;;0.09;89.34;101849.94;4916683;29;20036;-76
2022/01/21 00:36:42;;;;;;;4.55;1.10;;;;;;;0.07;89.50;101846.53;4916616;29;20056;-74
2022/01/21 00:39:07;;;;;;;8.38;1.35;;;;;;;0.06;89.12;101836.91;4916682;29;20032;-75
2022/01/21 00:41:38;;;;;;;10.88;2.47;;;;;;;0.07;89.77;101833.28;4917949;29;20067;-75
2022/01/21 00:44:04;;;;;;;3.78;1.17;;;;;;;0.08;89.54;101848.25;4920141;29;20111;-73
2022/01/21 00:46:29;;;;;;;7.95;2.33;;;;;;;0.11;89.73;101844.53;4919924;29;20120;-74
2022/01/21 00:48:54;;;;;;;6.38;1.58;;;;;;;0.09;89.53;101844.66;4920085;29;20119;-76
2022/01/21 00:51:20;;;;;;;7.85;1.73;;;;;;;0.08;89.81;101842.94;4920025;29;20035;-75
2022/01/21 00:53:45;;;;;;;5.68;1.63;;;;;;;0.08;89.77;101837.66;4919794;29;20044;-76
2022/01/21 00:56:10;;;;;;;3.58;1.13;;;;;;;0.17;89.32;101834.41;4919821;29;20112;-75
2022/01/21 00:58:36;;;;;;;5.15;1.23;;;;;;;0.15;89.64;101838.94;4919609;29;20119;-75
2022/01/21 01:01:02;;;;;;;5.15;1.00;;;;;;;0.15;89.90;101838.09;4919991;29;20423;-75
2022/01/21 01:03:27;;;;;;;4.00;1.60;;;;;;;0.21;89.58;101833.22;4919773;29;20036;-75
2022/01/21 01:05:52;;;;;;;3.53;1.33;;;;;;;0.19;89.76;101828.97;4919763;29;20171;-75
2022/01/21 01:08:19;;;;;;;6.63;1.77;;;;;;;0.17;89.52;101826.44;4919749;29;20448;-75
2022/01/21 01:21:22;;;;;;;4.43;1.25;;;;;;;0.12;89.66;101835.66;4919225;29;20043;-75
2022/01/21 01:24:04;;;;;;;8.02;1.45;;;;;;;0.09;89.89;101834.03;4919473;29;20028;-74
2022/01/21 01:29:15;;;;;;;4.13;1.07;;;;;;;0.08;89.85;101837.66;4919477;29;20080;-75
2022/01/21 01:31:41;;;;;;;6.68;1.63;;;;;;;0.11;90.33;101844.53;4919532;29;20028;-75
2022/01/21 01:34:06;;;;;;;4.88;1.38;;;;;;;0.10;89.57;101842.84;4919303;29;20468;-75
2022/01/21 01:36:32;;;;;;;4.45;1.20;;;;;;;0.09;90.07;101843.78;4919640;29;20039;-75
2022/01/21 01:41:36;;;;;;;4.22;1.15;;;;;;;0.13;89.46;101838.19;4919563;29;20032;-75
2022/01/21 01:49:34;;;;;;;7.25;1.30;;;;;;;0.09;89.70;101843.78;4918899;29;20075;-75
2022/01/21 01:52:00;;;;;;;6.30;1.40;;;;;;;0.13;89.81;101840.84;4919222;29;20842;-75
2022/01/21 01:54:28;;;;;;;8.02;1.10;;;;;;;0.13;89.77;101848.81;4919125;29;20104;-75
2022/01/21 01:56:55;;;;;;;3.97;1.55;;;;;;;0.15;89.66;101851.34;4919722;29;20066;-75
2022/01/21 01:59:21;;;;;;;4.57;1.95;;;;;;;0.20;89.71;101841.25;4919418;29;20032;-74
2022/01/21 02:01:51;;;;;;;13.10;1.70;;;;;;;0.19;89.90;101832.47;4918986;29;20036;-74
2022/01/21 02:04:17;;;;;;;4.82;1.73;;;;;;;0.21;89.49;101824.41;4917642;29;20451;-74
2022/01/21 02:06:42;;;;;;;6.85;1.80;;;;;;;0.24;89.68;101827.72;4918930;29;20048;-75
2022/01/21 02:09:07;;;;;;;4.15;1.27;;;;;;;0.28;89.46;101833.66;4918834;29;20543;-75
2022/01/21 02:11:33;;;;;;;3.38;1.33;;;;;;;0.29;89.49;101825.59;4918761;29;20035;-75
2022/01/21 02:14:00;;;;;;;3.72;1.20;;;;;;;0.52;87.94;101808.13;4918562;29;20036;-75
2022/01/21 02:21:42;;;;;;;10.07;1.05;;;;;;;0.50;87.58;101833.88;4918284;29;20067;-75
2022/01/21 02:24:16;;;;;;;6.03;1.13;;;;;;;0.48;88.07;101824.34;4917142;29;20032;-75
2022/01/21 02:26:42;;;;;;;5.45;1.40;;;;;;;0.55;88.18;101836.22;4918131;29;20039;-75
2022/01/21 02:29:10;;;;;;;5.70;0.95;;;;;;;0.47;88.06;101839.41;4918323;29;20383;-76
2022/01/21 02:31:37;;;;;;;5.00;2.15;;;;;;;0.39;88.15;101841.72;4918341;29;20530;-75
2022/01/21 02:34:04;;;;;;;5.82;1.55;;;;;;;0.37;88.49;101834.81;4917054;29;20456;-75
2022/01/21 02:36:30;;;;;;;10.45;0.93;;;;;;;0.57;87.63;101834.28;4917131;29;20383;-75
2022/01/21 02:38:56;;;;;;;8.00;1.17;;;;;;;0.47;87.81;101833.25;4917025;29;20032;-75
2022/01/21 02:41:22;;;;;;;5.45;1.23;;;;;;;0.40;87.86;101842.56;4918215;29;20052;-75
2022/01/21 02:43:47;;;;;;;7.32;1.05;;;;;;;0.31;88.24;101850.22;4918119;29;20106;-76
2022/01/21 02:46:15;;;;;;;5.65;1.05;;;;;;;0.42;88.03;101854.78;4916899;29;20055;-76
2022/01/21 02:48:41;;;;;;;6.07;1.95;;;;;;;0.32;87.78;101854.56;4918131;29;20071;-76
2022/01/21 02:51:10;;;;;;;7.03;1.05;;;;;;;0.26;88.78;101862.91;4918230;29;20060;-75
2022/01/21 02:54:23;;;;;;;3.67;1.10;;;;;;;0.26;88.51;101859.41;4916767;29;20044;-75
2022/01/21 02:56:23;;;;;;;8.27;2.20;;;;;;;0.56;88.01;101862.63;4913955;29;20556;-76
2022/01/21 02:58:49;;;;;;;9.80;1.55;;;;;;;0.34;87.63;101865.91;4918058;29;20081;-76
2022/01/21 03:01:16;;;;;;;7.30;1.65;;;;;;;0.32;88.48;101869.63;4916875;29;20045;-77
2022/01/21 03:03:43;;;;;;;3.40;1.30;;;;;;;0.37;88.16;101870.13;4919066;29;20107;-76
2022/01/21 03:06:08;;;;;;;7.22;1.52;;;;;;;0.36;88.18;101862.31;4923195;29;20036;-74
2022/01/21 03:08:34;;;;;;;3.67;1.00;;;;;;;0.40;88.32;101871.72;4922944;29;20490;-75
2022/01/21 03:10:59;;;;;;;4.47;1.25;;;;;;;0.44;87.93;101870.56;4922744;29;20036;-74
2022/01/21 03:13:25;;;;;;;1.83;0.77;;;;;;;0.58;87.86;101868.69;4922830;29;20388;-74
2022/01/21 03:15:51;;;;;;;2.28;1.15;;;;;;;0.44;87.91;101860.81;4918292;29;20036;-74
2022/01/21 03:18:17;;;;;;;9.77;2.05;;;;;;;0.42;88.45;101859.22;4917653;29;20036;-74
2022/01/21 03:20:44;;;;;;;2.35;1.00;;;;;;;0.47;88.62;101860.63;4916084;29;20120;-74
2022/01/21 03:23:15;;;;;;;3.33;1.35;;;;;;;0.46;89.09;101858.91;4918509;29;20035;-74
2022/01/21 03:25:42;;;;;;;6.25;1.30;;;;;;;0.57;88.49;101866.13;4917918;29;20032;-74
2022/01/21 03:28:08;;;;;;;4.05;1.10;;;;;;;0.58;88.71;101851.91;4917744;29;20088;-74
2022/01/21 03:30:34;;;;;;;4.10;1.17;;;;;;;0.61;88.46;101844.59;4917313;29;20032;-74
2022/01/21 03:32:59;;;;;;;2.92;1.02;;;;;;;0.55;88.05;101841.50;4917155;29;20040;-74
2022/01/21 03:35:24;;;;;;;8.93;1.27;;;;;;;0.39;88.66;101854.13;4917153;29;20462;-74
2022/01/21 03:37:50;;;;;;;4.63;1.17;;;;;;;0.39;88.97;101864.72;4917192;29;20368;-74
2022/01/21 03:40:15;;;;;;;8.73;1.70;;;;;;;0.31;89.06;101854.66;4917237;29;20672;-74
2022/01/21 03:42:40;;;;;;;3.85;1.00;;;;;;;0.46;89.17;101855.41;4917209;29;20036;-74
2022/01/21 03:45:07;;;;;;;6.30;1.70;;;;;;;0.48;88.98;101856.16;4917106;29;20071;-74
2022/01/21 03:47:32;;;;;;;;;;;;;;;0.36;89.18;101849.88;4917262;29;20505;-74
2022/01/21 03:50:18;;;;;;;4.07;1.35;;;;;;;0.28;89.47;101855.72;4915990;29;19915;-74
2022/01/21 03:52:43;;;;;;;1.90;0.90;;;;;;;0.39;89.83;101857.63;4916693;29;20040;-74
2022/01/21 03:55:08;;;;;;;3.30;0.90;;;;;;;0.31;89.51;101863.47;4917651;29;20054;-74
2022/01/21 03:57:33;;;;;;;6.55;1.42;;;;;;;0.40;89.75;101866.44;4916622;29;20052;-74
2022/01/21 03:59:59;;;;;;;2.28;0.77;;;;;;;0.27;89.68;101864.63;4916761;29;20109;-74
2022/01/21 04:02:24;;;;;;;5.33;2.20;;;;;;;0.36;89.65;101862.31;4916666;29;20032;-74
2022/01/21 04:04:49;;;;;;;5.90;1.20;;;;;;;0.56;89.14;101859.13;4915679;29;20288;-74
2022/01/21 04:07:15;;;;;;;6.37;1.03;;;;;;;0.78;89.11;101871.75;4916907;29;20265;-74
2022/01/21 04:09:40;;;;;;;3.35;1.38;;;;;;;0.56;88.49;101875.03;4916899;29;20039;-74
2022/01/21 04:12:06;;;;;;;4.70;0.95;;;;;;;0.63;89.03;101876.31;4916789;29;20036;-74
2022/01/21 04:14:34;;;;;;;8.40;1.50;;;;;;;0.46;88.87;101869.53;4916618;29;20071;-74
2022/01/21 04:16:59;;;;;;;3.15;1.00;;;;;;;0.50;89.03;101878.13;4918871;29;20032;-76
2022/01/21 04:19:26;;;;;;;3.55;0.85;;;;;;;0.37;89.51;101877.22;4920451;29;20047;-74
2022/01/21 04:21:52;;;;;;;4.72;1.08;;;;;;;0.38;89.75;101878.94;4920570;29;20046;-74
2022/01/21 04:24:17;;;;;;;3.53;1.60;;;;;;;0.53;89.80;101875.28;4920563;29;20441;-74
2022/01/21 04:26:43;;;;;;;6.53;1.40;;;;;;;0.44;89.25;101881.19;4920705;29;20059;-74
2022/01/21 04:29:08;;;;;;;5.00;1.30;;;;;;;0.62;88.98;101870.16;4920504;29;20691;-74
2022/01/21 04:31:33;;;;;;;3.92;1.02;;;;;;;0.64;88.76;101867.41;4919217;29;20268;-74
2022/01/21 04:33:59;;;;;;;9.33;1.93;;;;;;;0.55;89.03;101855.63;4920156;29;20495;-74
2022/01/21 04:36:24;;;;;;;4.07;1.10;;;;;;;0.63;89.03;101861.25;4920355;29;20609;-74
2022/01/21 04:38:52;;;;;;;5.20;0.90;;;;;;;0.48;89.13;101861.47;4920384;29;20327;-74
2022/01/21 04:49:36;;;;;;;3.47;1.50;;;;;;;0.50;89.15;101860.41;4919829;29;20038;-74
2022/01/21 04:52:02;;;;;;;6.45;1.52;;;;;;;0.57;89.58;101860.81;4920105;29;20028;-75
2022/01/21 04:54:33;;;;;;;6.60;1.67;;;;;;;0.51;89.70;101864.75;4918799;29;20040;-74
2022/01/21 04:56:59;;;;;;;5.10;1.02;;;;;;;0.44;89.83;101854.66;4919811;29;20043;-74
2022/01/21 04:59:25;;;;;;;2.95;1.30;;;;;;;0.46;89.97;101861.56;4919912;29;20490;-74
2022/01/21 05:01:51;;;;;;;4.85;1.52;;;;;;;0.57;89.75;101861.66;4919885;29;20032;-75
2022/01/21 05:04:18;;;;;;;5.53;1.58;;;;;;;0.57;89.38;101852.88;4919495;29;20038;-74
2022/01/21 05:06:44;;;;;;;7.13;1.58;;;;;;;0.58;88.84;101863.38;4919483;29;20064;-75
2022/01/21 05:09:09;;;;;;;6.10;1.30;;;;;;;0.75;88.83;101859.56;4919510;29;20032;-74
2022/01/21 05:11:37;;;;;;;2.78;0.90;;;;;;;0.64;89.25;101872.72;4920116;29;20048;-75
2022/01/21 05:16:46;;;;;;;2.72;1.10;;;;;;;0.46;89.77;101863.38;4919607;29;20048;-75
2022/01/21 05:19:16;;;;;;;4.65;1.10;;;;;;;0.45;90.16;101867.81;4919586;29;20080;-75
2022/01/21 05:21:46;;;;;;;5.13;1.23;;;;;;;0.50;89.79;101864.88;4919806;29;20039;-75
2022/01/21 05:24:12;;;;;;;2.53;0.95;;;;;;;0.54;90.00;101861.03;4919047;29;20476;-75
2022/01/21 05:26:40;;;;;;;4.20;1.23;;;;;;;0.51;89.67;101863.91;4919031;29;20036;-75
2022/01/21 05:29:11;;;;;;;3.28;1.13;;;;;;;0.52;89.59;101865.63;4918778;29;20492;-74
2022/01/21 05:31:36;;;;;;;6.55;1.05;;;;;;;0.61;89.56;101870.28;4919278;29;20048;-74
2022/01/21 05:34:02;;;;;;;2.85;0.95;;;;;;;0.59;89.69;101872.19;4919315;29;20482;-74
2022/01/21 05:36:30;;;;;;;6.57;1.40;;;;;;;0.57;89.47;101871.44;4918913;29;20413;-75
2022/01/21 05:38:56;;;;;;;5.40;0.93;;;;;;;0.58;89.50;101867.81;4918993;29;20128;-75
2022/01/21 05:41:23;;;;;;;6.70;1.25;;;;;;;0.58;89.83;101867.81;4919218;29;20136;-75
2022/01/21 05:43:50;;;;;;;3.35;1.20;;;;;;;0.53;89.57;101881.44;4918917;29;20043;-75
2022/01/21 05:48:59;;;;;;;7.60;1.90;;;;;;;0.49;89.95;101876.44;4918706;29;20159;-75
2022/01/21 05:51:24;;;;;;;4.55;1.13;;;;;;;0.67;89.39;101880.47;4917712;29;20123;-75
2022/01/21 05:53:50;;;;;;;4.97;0.90;;;;;;;0.78;89.21;101875.25;4918509;29;20064;-75
2022/01/21 05:56:15;;;;;;;4.38;1.63;;;;;;;0.77;89.09;101873.56;4919375;29;20036;-76
2022/01/21 05:58:40;;;;;;;8.37;1.30;;;;;;;0.77;89.25;101876.22;4919300;29;20044;-76
2022/01/21 06:01:06;;;;;;;5.18;1.08;;;;;;;0.77;88.99;101884.19;4918608;29;20328;-74
2022/01/21 06:03:32;;;;;;;4.82;1.40;;;;;;;0.76;88.84;101881.63;4918679;29;20042;-74
2022/01/21 06:05:58;;;;;;;4.18;1.50;;;;;;;0.77;89.04;101884.19;4918646;29;20083;-75
2022/01/21 06:08:24;;;;;;;6.53;1.42;;;;;;;0.86;88.92;101880.03;4918416;29;20460;-75
2022/01/21 06:10:49;;;;;;;3.30;1.58;;;;;;;0.69;88.89;101886.53;4918256;29;20059;-73
2022/01/21 06:13:18;;;;;;;4.72;2.15;;;;;;;0.86;88.55;101885.34;4918651;29;20032;-73
2022/01/21 06:15:45;;;;;;;4.47;1.17;;;;;;;0.78;88.29;101893.84;4918677;29;20044;-75
2022/01/21 06:18:10;;;;;;;8.65;1.23;;;;;;;0.66;89.35;101886.72;4918576;29;20107;-75
2022/01/21 06:20:37;;;;;;;10.40;1.67;;;;;;;0.75;89.44;101886.06;4918298;29;20123;-74
2022/01/21 06:23:02;;;;;;;5.13;1.20;;;;;;;0.76;89.30;101889.59;4917127;29;20032;-74
2022/01/21 06:25:28;;;;;;;5.82;2.17;;;;;;;0.75;89.30;101888.72;4918364;29;20032;-74
2022/01/21 06:27:53;;;;;;;7.95;2.63;;;;;;;0.77;89.14;101899.25;4917160;29;20380;-74
2022/01/21 06:30:18;;;;;;;11.88;2.90;;;;;;;0.74;89.15;101895.00;4918445;29;20036;-74
2022/01/21 06:32:44;;;;;;;7.72;1.30;;;;;;;0.69;89.00;101897.97;4918252;29;20067;-74
2022/01/21 06:35:11;;;;;;;6.23;1.70;;;;;;;0.65;88.71;101900.94;4917083;29;20040;-74
2022/01/21 06:37:37;;;;;;;2.88;1.27;;;;;;;0.61;89.37;101907.41;4917036;29;20272;-74
2022/01/21 06:40:05;;;;;;;3.70;1.70;;;;;;;0.58;88.98;101916.41;4916924;29;20075;-74
2022/01/21 06:42:30;;;;;;;4.60;1.25;;;;;;;0.58;89.41;101921.72;4917630;29;20047;-74
2022/01/21 06:44:57;;;;;;;9.13;1.58;;;;;;;0.58;89.01;101926.19;4918043;29;20044;-75
2022/01/21 06:47:22;;;;;;;7.85;2.40;;;;;;;0.65;88.84;101924.81;4917035;29;20119;-74
2022/01/21 06:49:48;;;;;;;3.60;1.33;;;;;;;0.75;89.12;101933.84;4916503;29;20191;-75
2022/01/21 06:52:13;;;;;;;4.25;1.52;;;;;;;0.74;88.60;101940.09;4918101;29;20048;-74
2022/01/21 06:54:39;;;;;;;4.88;1.63;;;;;;;0.78;88.62;101941.59;4917880;29;20040;-74
2022/01/21 06:57:04;;;;;;;5.20;1.70;;;;;;;0.80;88.77;101950.31;4917170;29;20036;-74
2022/01/21 06:59:36;;;;;;;4.18;1.73;;;;;;;0.84;88.77;101948.28;5111077;27;20730;-74
2022/01/21 07:02:02;;;;;;;6.53;1.90;;;;;;;1.08;88.63;101954.53;5111170;28;20050;-75
2022/01/21 07:04:27;;;;;;;5.22;1.38;;;;;;;0.95;88.17;101943.09;5110874;28;20047;-74
2022/01/21 07:06:56;;;;;;;6.38;2.00;;;;;;;0.88;88.49;101947.13;5110888;28;20116;-74
2022/01/21 07:09:21;;;;;;;8.82;2.13;;;;;;;0.82;88.37;101935.13;5110600;28;20497;-74
2022/01/21 07:11:47;;;;;;;4.97;2.70;;;;;;;0.73;88.62;101941.03;5109601;28;20107;-75
2022/01/21 07:14:12;;;;;;;8.00;2.45;;;;;;;0.58;88.78;101936.78;5110969;28;20382;-75
2022/01/21 07:16:37;;;;;;;9.33;2.80;;;;;;;0.39;89.19;101931.00;5110641;28;20024;-75
2022/01/21 07:19:03;;;;;;;10.13;2.53;;;;;;;0.28;90.06;101932.59;5110707;28;20619;-75
2022/01/21 07:21:28;;;;;;;6.20;2.42;;;;;;;0.24;90.42;101941.69;5111031;28;20250;-75
2022/01/21 07:23:53;;;;;;;7.55;3.05;;;;;;;0.25;90.87;101940.75;5111003;28;20036;-75
2022/01/21 07:26:19;;;;;;;7.57;2.70;;;;;;;0.31;91.03;101939.50;5110923;28;20366;-75
2022/01/21 07:28:44;;;;;;;7.20;3.53;;;;;;;0.39;91.22;101957.53;5110932;28;20648;-75
2022/01/21 07:31:09;;;;;;;16.08;2.92;;;;;;;0.31;90.83;101952.75;5110825;28;20024;-74
2022/01/21 07:33:36;;;;;;;11.13;3.47;;;;;;;0.41;89.93;101958.28;5110199;28;20028;-74
2022/01/21 07:36:02;;;;;;;8.48;2.63;;;;;;;0.68;91.43;101954.66;5109923;28;20020;-75
2022/01/21 07:38:28;;;;;;;8.50;2.63;;;;;;;0.90;89.41;101958.47;5109461;28;20481;-75
2022/01/21 07:40:53;;;;;;;9.65;3.03;;;;;;;0.84;87.81;101961.56;5109864;28;20437;-74
2022/01/21 07:43:18;;;;;;;5.60;2.78;;;;;;;0.91;88.42;101961.00;5109862;28;20114;-74
2022/01/21 07:45:44;;;;;;;8.55;3.42;;;;;;;0.96;88.67;101964.22;5108709;28;20034;-75
2022/01/21 07:48:09;;;;;;;10.18;3.47;;;;;;;0.99;88.85;101957.84;5109608;28;20098;-75
2022/01/21 07:50:35;;;;;;;14.50;4.05;;;;;;;0.68;88.31;101967.91;5109861;28;20473;-75
2022/01/21 07:53:01;;;;;;;10.88;3.00;;;;;;;0.80;89.30;101976.84;5109487;28;20032;-77
2022/01/21 07:55:27;;;;;;;9.45;3.03;;;;;;;0.81;89.72;101964.41;5108427;28;20036;-75
2022/01/21 07:57:52;;;;;;;10.90;3.65;;;;;;;0.77;88.88;101969.06;5109064;28;20056;-75
2022/01/21 08:00:18;;;;;;;14.57;3.85;;;;;;;0.78;87.86;101965.47;5109271;28;20036;-75
2022/01/21 08:02:45;;;;;;;13.27;4.10;;;;;;;0.68;88.50;101964.41;5111051;28;20123;-75
2022/01/21 08:05:10;;;;;;;;;;;;;;;0.77;90.25;101974.38;5109284;28;20392;-75
2022/01/21 08:07:35;;;;;;;13.32;3.47;;;;;;;0.91;89.70;101965.47;5109570;28;19994;-75
2022/01/21 08:10:01;;;;;;;15.93;4.30;;;;;;;1.10;88.33;101957.94;5100902;28;20047;-75
2022/01/21 08:12:26;;;;;;;12.63;4.72;;;;;;;0.64;88.38;101961.09;5095704;28;20032;-75
2022/01/21 08:14:52;;;;;;;11.02;3.75;;;;;;;0.71;88.35;101958.91;5094499;28;20462;-75
2022/01/21 08:17:17;;;;;;;9.23;3.58;;;;;;;0.56;88.43;101958.09;5095553;28;20032;-75
2022/01/21 08:19:42;;;;;;;12.98;4.82;;;;;;;0.45;90.19;101960.63;5096064;28;20138;-75
2022/01/21 08:22:08;;;;;;;9.83;3.73;;;;;;;0.54;89.87;101969.75;5095761;28;20036;-75
2022/01/21 08:24:33;;;;;;;9.60;3.60;;;;;;;0.53;89.42;101961.00;5095375;28;20254;-75
2022/01/21 08:26:59;;;;;;;13.65;3.95;;;;;;;0.47;89.43;101963.19;5095488;28;20039;-75
2022/01/21 08:29:25;;;;;;;11.43;3.28;;;;;;;0.47;88.85;101966.69;5095469;28;20028;-74
2022/01/21 08:31:50;;;;;;;6.57;2.70;;;;;;;0.41;89.50;101975.03;5094125;28;20081;-74
2022/01/21 08:34:19;;;;;;;9.05;4.50;;;;;;;0.59;88.83;101960.56;5095487;28;20028;-75
2022/01/21 08:36:46;;;;;;;7.72;3.05;;;;;;;0.75;88.76;101964.81;5095308;28;20040;-75
2022/01/21 08:39:13;;;;;;;9.68;3.45;;;;;;;0.84;87.43;101966.88;5095458;28;20411;-74
2022/01/21 08:41:39;;;;;;;10.95;3.80;;;;;;;0.88;88.26;101965.72;5095143;28;20024;-74
2022/01/21 08:44:04;;;;;;;12.95;4.10;;;;;;;0.74;87.64;101971.94;5095188;28;20047;-75
2022/01/21 08:46:30;;;;;;;12.35;4.47;;;;;;;0.82;89.61;101974.94;5093753;28;20115;-75
2022/01/21 08:48:55;;;;;;;11.57;4.45;;;;;;;0.78;88.22;101973.44;5094975;28;20042;-75
2022/01/21 08:51:26;;;;;;;10.50;3.38;;;;;;;0.83;89.33;101973.97;5095241;28;20051;-75
2022/01/21 08:53:52;;;;;;;10.45;4.07;;;;;;;1.04;87.85;101969.84;5094085;28;20101;-74
2022/01/21 08:56:19;;;;;;;8.60;4.65;;;;;;;0.98;87.08;101972.06;5094954;28;20032;-75
2022/01/21 08:58:46;;;;;;;8.93;3.72;;;;;;;1.17;87.58;101977.81;5094703;28;20479;-74
2022/01/21 09:01:13;;;;;;;15.13;4.97;;;;;;;1.09;86.81;101973.97;5094507;28;20374;-75
2022/01/21 09:03:41;;;;;;;8.07;3.33;;;;;;;0.89;86.75;101976.22;5094721;28;20060;-75
2022/01/21 09:06:07;;;;;;;8.98;3.63;;;;;;;1.00;88.92;101986.09;5094628;28;20028;-76
2022/01/21 09:08:33;;;;;;;8.38;3.63;;;;;;;1.24;87.26;101975.59;5094572;28;20062;-75
2022/01/21 09:11:02;;;;;;;9.85;4.75;;;;;;;0.91;86.69;101971.63;5094765;28;20067;-75
2022/01/21 09:13:30;;;;;;;10.15;3.40;;;;;;;0.54;88.22;101970.63;5094200;28;20427;-75
2022/01/21 09:16:00;;;;;;;11.63;3.85;;;;;;;0.55;88.38;101974.13;5094224;28;20390;-75
2022/01/21 09:18:34;;;;;;;14.85;4.05;;;;;;;0.43;88.70;101975.78;5094189;28;20140;-75
2022/01/21 09:21:01;;;;;;;13.13;3.58;;;;;;;0.52;89.66;101971.69;5092154;28;20482;-75
2022/01/21 09:23:27;;;;;;;7.82;2.83;;;;;;;0.34;89.34;101974.63;5094779;28;20054;-75
2022/01/21 09:25:53;;;;;;;7.65;3.80;;;;;;;0.15;90.00;101982.06;5094563;28;20119;-75
2022/01/21 09:28:19;;;;;;;8.50;3.35;;;;;;;0.17;89.88;101984.63;5094401;28;20085;-75
2022/01/21 09:30:44;;;;;;;10.32;3.40;;;;;;;0.18;90.09;101981.03;5093904;28;20501;-75
2022/01/21 09:33:10;;;;;;;9.50;3.25;;;;;;;0.17;90.47;101979.31;5091932;28;20110;-75
2022/01/21 09:35:36;;;;;;;12.02;3.78;;;;;;;0.28;90.61;101985.63;5093690;28;20031;-75
2022/01/21 09:38:01;;;;;;;10.02;3.70;;;;;;;0.37;90.51;101991.25;5093728;28;20036;-76
2022/01/21 09:40:31;;;;;;;7.72;3.83;;;;;;;0.48;90.56;101989.59;5094008;28;20028;-76
2022/01/21 09:42:57;;;;;;;10.82;3.67;;;;;;;0.59;89.85;101986.22;5092885;28;20463;-75
2022/01/21 09:45:24;;;;;;;10.05;3.90;;;;;;;0.72;89.58;101986.28;5094207;28;20043;-75
2022/01/21 09:47:54;;;;;;;14.32;4.65;;;;;;;0.79;89.44;101979.59;5092569;28;20126;-75
2022/01/21 09:50:21;;;;;;;9.77;3.83;;;;;;;0.83;89.21;101976.63;5093826;28;20093;-76
2022/01/21 09:52:49;;;;;;;10.70;4.22;;;;;;;0.87;89.14;101985.25;5093619;28;20056;-75
2022/01/21 09:55:17;;;;;;;8.65;4.22;;;;;;;0.88;88.92;101978.97;5093827;28;20063;-76
2022/01/21 09:57:47;;;;;;;11.05;3.90;;;;;;;0.86;88.71;101984.38;5093376;28;20134;-76
2022/01/21 10:00:14;;;;;;;13.30;4.90;;;;;;;0.84;88.66;101980.13;5093614;28;20028;-76
2022/01/21 10:02:41;;;;;;;12.93;5.32;;;;;;;0.85;88.64;101992.44;5093782;28;20039;-76
2022/01/21 10:05:07;;;;;;;14.63;5.18;;;;;;;0.92;89.25;101999.03;5093762;28;20024;-77
2022/01/21 10:07:35;;;;;;;12.55;4.45;;;;;;;0.93;88.67;101998.91;5093992;28;20032;-76
2022/01/21 10:10:07;;;;;;;13.70;3.97;;;;;;;0.96;88.62;102000.53;5093517;28;20343;-76
2022/01/21 10:12:34;;;;;;;13.32;3.92;;;;;;;1.03;88.75;102007.97;5093233;28;20024;-76
2022/01/21 10:15:00;;;;;;;14.93;4.57;;;;;;;1.27;88.32;102012.53;5093366;28;20538;-76
2022/01/21 10:17:26;;;;;;;8.88;3.30;;;;;;;1.29;88.11;102010.63;5093316;28;20115;-76
2022/01/21 10:19:52;;;;;;;13.23;4.18;;;;;;;1.35;88.21;102008.41;5093603;28;20048;-76
2022/01/21 10:22:26;;;;;;;11.77;3.92;;;;;;;1.50;87.30;102006.47;5091932;28;20024;-76
2022/01/21 10:25:00;;;;;;;7.82;3.80;;;;;;;1.51;87.31;102002.88;5091975;28;20101;-76
2022/01/21 10:27:36;;;;;;;8.25;2.83;;;;;;;1.57;87.71;102002.44;5093417;28;20036;-76
2022/01/21 10:30:17;;;;;;;7.15;3.33;;;;;;;1.64;87.31;102003.69;5093132;28;20419;-76
2022/01/21 10:32:43;;;;;;;8.52;3.25;;;;;;;1.70;87.36;102011.25;5091696;28;20028;-74
2022/01/21 10:35:26;;;;;;;10.23;3.65;;;;;;;1.84;87.52;102004.06;5093142;28;20047;-76
2022/01/21 10:37:55;;;;;;;10.77;3.97;;;;;;;1.89;86.91;102007.25;5091842;28;20040;-74
2022/01/21 10:40:21;;;;;;;8.77;3.45;;;;;;;1.89;86.33;102005.47;5093078;28;20164;-74
2022/01/21 10:42:49;;;;;;;8.88;3.15;;;;;;;2.14;86.20;102006.34;5091607;28;20444;-74
2022/01/21 10:45:15;;;;;;;10.88;4.28;;;;;;;2.15;85.49;101992.91;5093194;28;20305;-74
2022/01/21 10:47:49;;;;;;;10.00;3.05;;;;;;;2.21;85.44;101992.47;5091461;28;20031;-74
2022/01/21 10:50:23;;;;;;;9.05;3.05;;;;;;;2.20;85.41;101987.28;5091708;28;20025;-76
2022/01/21 10:52:52;;;;;;;9.88;3.15;;;;;;;2.22;85.17;101988.84;5091618;28;20127;-75
2022/01/21 10:55:36;;;;;;;8.13;3.55;;;;;;;2.28;85.30;101983.09;5092745;28;20035;-75
2022/01/21 10:58:07;;;;;;;6.85;2.72;;;;;;;2.35;85.34;101986.97;5092349;28;20131;-75
2022/01/21 11:00:33;;;;;;;10.55;3.38;;;;;;;2.44;84.61;101994.28;5091527;28;20020;-75
2022/01/21 11:03:19;;;;;;;;;;;;;;;2.50;84.81;101987.69;5092165;28;20028;-75
2022/01/21 11:05:48;;;;;;;10.43;3.20;;;;;;;2.52;84.39;101987.53;5090860;28;19957;-75
2022/01/21 11:08:14;;;;;;;5.50;2.65;;;;;;;2.54;84.55;101980.28;5091625;28;20400;-75
2022/01/21 11:10:42;;;;;;;13.02;3.33;;;;;;;2.52;84.53;101985.72;5091415;28;20085;-75
2022/01/21 11:13:10;;;;;;;9.65;3.38;;;;;;;2.46;84.48;101977.38;5092551;28;20031;-75
2022/01/21 11:15:47;;;;;;;6.57;2.97;;;;;;;2.43;84.97;101976.63;5091760;28;20092;-75
2022/01/21 11:18:15;;;;;;;6.63;2.80;;;;;;;2.40;85.04;101968.88;5091212;28;20478;-77
2022/01/21 11:20:43;;;;;;;7.60;2.85;;;;;;;2.43;85.33;101962.47;5091865;28;20032;-75
2022/01/21 11:23:09;;;;;;;10.57;2.95;;;;;;;2.43;85.45;101965.16;5092631;28;20028;-75
2022/01/21 11:25:56;;;;;;;8.27;2.80;;;;;;;2.53;85.75;101965.28;5091595;28;20028;-75
2022/01/21 11:28:24;;;;;;;5.97;2.28;;;;;;;2.62;85.29;101962.81;5091516;28;20035;-75
2022/01/21 11:30:52;;;;;;;6.65;2.75;;;;;;;2.69;85.24;101960.50;5092454;28;20039;-75
2022/01/21 11:33:18;;;;;;;6.40;2.58;;;;;;;2.72;85.16;101960.28;5092919;28;20359;-75
2022/01/21 11:35:47;;;;;;;4.93;2.38;;;;;;;2.75;84.96;101952.06;5091143;28;20118;-75
2022/01/21 11:38:13;;;;;;;6.00;2.20;;;;;;;2.84;85.47;101954.03;5093166;28;20024;-75
2022/01/21 11:40:40;;;;;;;5.78;2.47;;;;;;;2.89;85.20;101954.50;5092386;28;20035;-75
2022/01/21 11:43:08;;;;;;;10.57;2.17;;;;;;;3.01;85.16;101958.06;5092569;28;20560;-75
2022/01/21 11:50:44;;;;;;;9.80;2.53;;;;;;;3.40;84.29;101952.25;5096538;28;20112;-75
2022/01/21 11:53:10;;;;;;;13.00;2.80;;;;;;;3.50;83.50;101952.41;5096356;28;20106;-75
2022/01/21 11:55:47;;;;;;;5.80;1.90;;;;;;;3.57;82.97;101947.44;5095259;28;20423;-75
2022/01/21 11:58:12;;;;;;;;;;;;;;;3.68;82.34;101939.41;5096919;28;20091;-75
2022/01/21 12:00:40;;;;;;;11.32;2.33;;;;;;;3.71;82.26;101945.34;5097249;28;19944;-74
2022/01/21 12:03:06;;;;;;;10.68;3.42;;;;;;;3.78;81.96;101937.69;5097397;28;20086;-75
2022/01/21 12:05:33;;;;;;;8.65;2.10;;;;;;;3.69;81.52;101944.63;5096224;28;20024;-74
2022/01/21 12:08:03;;;;;;;9.25;2.20;;;;;;;3.78;82.03;101940.34;5096464;28;20533;-74
2022/01/21 12:10:31;;;;;;;4.95;2.08;;;;;;;3.80;81.74;101933.94;5095098;28;20039;-74
2022/01/21 12:13:05;;;;;;;5.63;1.77;;;;;;;3.81;81.17;101934.78;5096859;28;20058;-74
2022/01/21 12:18:40;;;;;;;4.82;1.95;;;;;;;3.98;80.75;101934.25;5095967;28;20047;-74
2022/01/21 12:21:41;;;;;;;8.18;1.27;;;;;;;3.91;80.60;101930.41;5094991;28;20039;-74
2022/01/21 12:24:08;;;;;;;5.65;1.85;;;;;;;3.89;80.94;101923.50;5053233;28;20043;-75
2022/01/21 12:26:35;;;;;;;4.25;1.92;;;;;;;3.88;81.26;101924.47;5095894;28;20020;-75
2022/01/21 12:29:00;;;;;;;11.30;2.08;;;;;;;4.16;80.86;101919.41;5095969;28;20470;-75
2022/01/21 12:31:42;;;;;;;6.90;2.30;;;;;;;4.08;80.93;101908.53;5095949;28;20039;-75